sensor_id;sensor_type;location;lat;lon;timestamp;pressure;altitude;pressure_sealevel;temperature;humidity
39949;BME280;29070;48.102;-1.652;2022-12-18T00:04:24;101814.25;;;-1.98;73.69
39949;BME280;29070;48.102;-1.652;2022-12-18T00:09:24;101820.94;;;-1.95;73.79
39949;BME280;29070;48.102;-1.652;2022-12-18T00:14:25;101817.84;;;-2.00;73.71
39949;BME280;29070;48.102;-1.652;2022-12-18T00:19:25;101810.34;;;-2.05;73.58
39949;BME280;29070;48.102;-1.652;2022-12-18T00:24:26;101800.97;;;-2.06;73.93
39949;BME280;29070;48.102;-1.652;2022-12-18T00:29:26;101807.06;;;-2.07;73.92
39949;BME280;29070;48.102;-1.652;2022-12-18T00:34:26;101807.72;;;-2.03;73.63
39949;BME280;29070;48.102;-1.652;2022-12-18T00:39:27;101801.75;;;-2.04;73.95
39949;BME280;29070;48.102;-1.652;2022-12-18T00:44:27;101800.81;;;-2.03;73.90
39949;BME280;29070;48.102;-1.652;2022-12-18T00:49:27;101797.50;;;-2.05;74.00
39949;BME280;29070;48.102;-1.652;2022-12-18T00:54:28;101783.72;;;-2.04;74.04
39949;BME280;29070;48.102;-1.652;2022-12-18T00:59:28;101780.41;;;-2.06;73.90
39949;BME280;29070;48.102;-1.652;2022-12-18T01:04:33;101768.47;;;-2.07;74.39
39949;BME280;29070;48.102;-1.652;2022-12-18T01:09:33;101764.13;;;-2.06;74.23
39949;BME280;29070;48.102;-1.652;2022-12-18T01:14:34;101758.91;;;-2.05;74.28
39949;BME280;29070;48.102;-1.652;2022-12-18T01:19:35;101754.50;;;-2.03;74.32
39949;BME280;29070;48.102;-1.652;2022-12-18T01:24:35;101756.25;;;-2.03;73.99
39949;BME280;29070;48.102;-1.652;2022-12-18T01:29:35;101750.84;;;-1.99;74.30
39949;BME280;29070;48.102;-1.652;2022-12-18T01:34:37;101757.81;;;-2.01;74.10
39949;BME280;29070;48.102;-1.652;2022-12-18T01:39:37;101775.56;;;-1.96;74.28
39949;BME280;29070;48.102;-1.652;2022-12-18T01:49:55;101788.53;;;-1.98;74.12
39949;BME280;29070;48.102;-1.652;2022-12-18T01:54:57;101770.50;;;-1.98;74.44
39949;BME280;29070;48.102;-1.652;2022-12-18T02:00:06;101757.66;;;-1.98;74.39
39949;BME280;29070;48.102;-1.652;2022-12-18T02:05:09;101764.63;;;-2.00;74.50
39949;BME280;29070;48.102;-1.652;2022-12-18T02:15:36;101765.94;;;-1.93;74.64
39949;BME280;29070;48.102;-1.652;2022-12-18T02:20:54;101772.25;;;-1.98;74.48
39949;BME280;29070;48.102;-1.652;2022-12-18T02:31:15;101785.59;;;-1.92;74.50
39949;BME280;29070;48.102;-1.652;2022-12-18T02:36:19;101764.84;;;-1.88;74.33
39949;BME280;29070;48.102;-1.652;2022-12-18T02:41:22;101748.66;;;-1.90;74.66
39949;BME280;29070;48.102;-1.652;2022-12-18T02:46:33;101747.09;;;-1.93;74.23
39949;BME280;29070;48.102;-1.652;2022-12-18T02:51:44;101741.84;;;-1.92;74.68
39949;BME280;29070;48.102;-1.652;2022-12-18T02:56:54;101728.25;;;-1.94;74.34
39949;BME280;29070;48.102;-1.652;2022-12-18T03:02:25;101717.38;;;-1.99;74.02
39949;BME280;29070;48.102;-1.652;2022-12-18T03:07:50;101726.53;;;-1.93;74.54
39949;BME280;29070;48.102;-1.652;2022-12-18T03:12:59;101712.63;;;-1.90;74.22
39949;BME280;29070;48.102;-1.652;2022-12-18T03:18:10;101722.75;;;-1.87;74.86
39949;BME280;29070;48.102;-1.652;2022-12-18T03:23:17;101720.56;;;-1.79;74.55
39949;BME280;29070;48.102;-1.652;2022-12-18T03:28:21;101722.06;;;-1.75;74.83
39949;BME280;29070;48.102;-1.652;2022-12-18T03:38:31;101725.06;;;-1.68;74.97
39949;BME280;29070;48.102;-1.652;2022-12-18T03:48:42;101722.16;;;-1.62;74.86
39949;BME280;29070;48.102;-1.652;2022-12-18T03:58:50;101726.09;;;-1.57;74.69
39949;BME280;29070;48.102;-1.652;2022-12-18T04:03:52;101716.53;;;-1.55;74.54
39949;BME280;29070;48.102;-1.652;2022-12-18T04:08:53;101727.47;;;-1.51;75.25
39949;BME280;29070;48.102;-1.652;2022-12-18T04:13:57;101740.19;;;-1.48;74.82
39949;BME280;29070;48.102;-1.652;2022-12-18T04:18:58;101732.00;;;-1.40;74.82
39949;BME280;29070;48.102;-1.652;2022-12-18T04:23:59;101732.00;;;-1.40;74.58
39949;BME280;29070;48.102;-1.652;2022-12-18T04:28:59;101738.50;;;-1.35;74.94
39949;BME280;29070;48.102;-1.652;2022-12-18T04:34:00;101740.00;;;-1.30;74.50
39949;BME280;29070;48.102;-1.652;2022-12-18T04:39:00;101739.53;;;-1.23;74.88
39949;BME280;29070;48.102;-1.652;2022-12-18T04:44:01;101731.63;;;-1.20;74.78
39949;BME280;29070;48.102;-1.652;2022-12-18T04:49:01;101732.38;;;-1.18;74.98
39949;BME280;29070;48.102;-1.652;2022-12-18T04:54:02;101721.22;;;-1.18;75.05
39949;BME280;29070;48.102;-1.652;2022-12-18T04:59:02;101735.50;;;-1.12;74.87
39949;BME280;29070;48.102;-1.652;2022-12-18T05:04:03;101729.31;;;-1.10;74.79
39949;BME280;29070;48.102;-1.652;2022-12-18T05:09:03;101717.97;;;-1.07;74.85
39949;BME280;29070;48.102;-1.652;2022-12-18T05:14:04;101720.47;;;-1.06;75.17
39949;BME280;29070;48.102;-1.652;2022-12-18T05:19:04;101711.56;;;-1.00;74.85
39949;BME280;29070;48.102;-1.652;2022-12-18T05:24:04;101696.81;;;-0.98;75.03
39949;BME280;29070;48.102;-1.652;2022-12-18T05:29:05;101686.28;;;-0.95;74.33
39949;BME280;29070;48.102;-1.652;2022-12-18T05:34:05;101671.88;;;-0.98;74.79
39949;BME280;29070;48.102;-1.652;2022-12-18T05:39:06;101665.69;;;-0.95;74.52
39949;BME280;29070;48.102;-1.652;2022-12-18T05:44:07;101655.19;;;-0.92;74.71
39949;BME280;29070;48.102;-1.652;2022-12-18T05:49:07;101657.59;;;-0.89;74.84
39949;BME280;29070;48.102;-1.652;2022-12-18T05:54:07;101652.88;;;-0.82;75.12
39949;BME280;29070;48.102;-1.652;2022-12-18T05:59:08;101637.91;;;-0.77;75.35
39949;BME280;29070;48.102;-1.652;2022-12-18T06:04:08;101635.25;;;-0.75;74.82
39949;BME280;29070;48.102;-1.652;2022-12-18T06:09:09;101619.59;;;-0.72;75.08
39949;BME280;29070;48.102;-1.652;2022-12-18T06:14:09;101629.50;;;-0.66;75.29
39949;BME280;29070;48.102;-1.652;2022-12-18T06:19:14;101612.19;;;-0.64;75.19
39949;BME280;29070;48.102;-1.652;2022-12-18T06:24:15;101610.03;;;-0.58;75.49
39949;BME280;29070;48.102;-1.652;2022-12-18T06:29:15;101609.72;;;-0.53;75.34
39949;BME280;29070;48.102;-1.652;2022-12-18T06:34:15;101616.97;;;-0.45;75.51
39949;BME280;29070;48.102;-1.652;2022-12-18T06:39:16;101619.88;;;-0.37;75.33
39949;BME280;29070;48.102;-1.652;2022-12-18T06:44:16;101616.97;;;-0.32;75.54
39949;BME280;29070;48.102;-1.652;2022-12-18T06:49:16;101612.25;;;-0.26;75.71
39949;BME280;29070;48.102;-1.652;2022-12-18T06:54:17;101608.75;;;-0.25;75.61
39949;BME280;29070;48.102;-1.652;2022-12-18T06:59:17;101611.94;;;-0.21;75.76
39949;BME280;29070;48.102;-1.652;2022-12-18T07:04:18;101617.81;;;-0.19;75.91
39949;BME280;29070;48.102;-1.652;2022-12-18T07:09:18;101631.25;;;-0.14;76.19
39949;BME280;29070;48.102;-1.652;2022-12-18T07:14:19;101623.28;;;-0.11;75.39
39949;BME280;29070;48.102;-1.652;2022-12-18T07:19:19;101624.75;;;-0.07;75.46
39949;BME280;29070;48.102;-1.652;2022-12-18T07:24:19;101621.03;;;-0.03;75.66
39949;BME280;29070;48.102;-1.652;2022-12-18T07:29:20;101616.69;;;-0.02;75.94
39949;BME280;29070;48.102;-1.652;2022-12-18T07:34:20;101625.03;;;0.02;75.83
39949;BME280;29070;48.102;-1.652;2022-12-18T07:39:21;101611.13;;;0.04;76.22
39949;BME280;29070;48.102;-1.652;2022-12-18T07:44:21;101610.78;;;0.09;75.89
39949;BME280;29070;48.102;-1.652;2022-12-18T07:49:21;101617.19;;;0.16;76.39
39949;BME280;29070;48.102;-1.652;2022-12-18T07:54:23;101597.16;;;0.19;75.78
39949;BME280;29070;48.102;-1.652;2022-12-18T07:59:23;101595.94;;;0.25;76.42
39949;BME280;29070;48.102;-1.652;2022-12-18T08:04:24;101587.22;;;0.26;76.21
39949;BME280;29070;48.102;-1.652;2022-12-18T08:09:25;101590.53;;;0.28;75.98
39949;BME280;29070;48.102;-1.652;2022-12-18T08:14:25;101599.72;;;0.32;76.21
39949;BME280;29070;48.102;-1.652;2022-12-18T08:19:25;101598.59;;;0.36;76.65
39949;BME280;29070;48.102;-1.652;2022-12-18T08:24:26;101598.13;;;0.43;76.69
39949;BME280;29070;48.102;-1.652;2022-12-18T08:29:26;101585.94;;;0.45;76.89
39949;BME280;29070;48.102;-1.652;2022-12-18T08:34:27;101578.94;;;0.47;76.91
39949;BME280;29070;48.102;-1.652;2022-12-18T08:39:27;101577.78;;;0.51;76.66
39949;BME280;29070;48.102;-1.652;2022-12-18T08:44:28;101577.56;;;0.54;76.52
39949;BME280;29070;48.102;-1.652;2022-12-18T08:49:40;101583.00;;;0.62;76.70
39949;BME280;29070;48.102;-1.652;2022-12-18T08:54:40;101590.34;;;0.68;76.99
39949;BME280;29070;48.102;-1.652;2022-12-18T08:59:41;101587.50;;;0.71;77.35
39949;BME280;29070;48.102;-1.652;2022-12-18T09:04:41;101591.31;;;0.79;77.04
39949;BME280;29070;48.102;-1.652;2022-12-18T09:09:42;101588.31;;;0.85;77.21
39949;BME280;29070;48.102;-1.652;2022-12-18T09:14:42;101588.81;;;0.90;77.93
39949;BME280;29070;48.102;-1.652;2022-12-18T09:19:42;101595.19;;;0.97;77.55
39949;BME280;29070;48.102;-1.652;2022-12-18T09:24:43;101602.47;;;1.03;77.65
39949;BME280;29070;48.102;-1.652;2022-12-18T09:29:43;101601.56;;;1.04;78.03
39949;BME280;29070;48.102;-1.652;2022-12-18T09:34:44;101602.28;;;1.06;77.94
39949;BME280;29070;48.102;-1.652;2022-12-18T09:39:44;101607.22;;;1.09;78.29
39949;BME280;29070;48.102;-1.652;2022-12-18T09:44:49;101612.16;;;1.12;78.15
39949;BME280;29070;48.102;-1.652;2022-12-18T09:49:54;101594.56;;;1.18;77.92
39949;BME280;29070;48.102;-1.652;2022-12-18T09:55:42;101593.28;;;1.23;78.29
39949;BME280;29070;48.102;-1.652;2022-12-18T10:00:44;101585.91;;;1.30;78.27
39949;BME280;29070;48.102;-1.652;2022-12-18T10:06:13;101568.28;;;1.35;78.43
39949;BME280;29070;48.102;-1.652;2022-12-18T10:27:24;101548.09;;;1.51;78.78
39949;BME280;29070;48.102;-1.652;2022-12-18T10:32:28;101533.97;;;1.56;78.71
39949;BME280;29070;48.102;-1.652;2022-12-18T10:37:29;101528.56;;;1.59;78.35
39949;BME280;29070;48.102;-1.652;2022-12-18T10:42:30;101528.56;;;1.59;78.62
39949;BME280;29070;48.102;-1.652;2022-12-18T10:47:30;101518.94;;;1.61;78.59
39949;BME280;29070;48.102;-1.652;2022-12-18T10:52:32;101524.84;;;1.63;79.26
39949;BME280;29070;48.102;-1.652;2022-12-18T10:57:40;101524.34;;;1.69;79.12
39949;BME280;29070;48.102;-1.652;2022-12-18T11:02:41;101523.28;;;1.71;79.37
39949;BME280;29070;48.102;-1.652;2022-12-18T11:07:49;101506.72;;;1.74;79.25
39949;BME280;29070;48.102;-1.652;2022-12-18T11:12:50;101496.25;;;1.76;79.52
39949;BME280;29070;48.102;-1.652;2022-12-18T11:17:51;101494.38;;;1.78;79.35
39949;BME280;29070;48.102;-1.652;2022-12-18T11:22:57;101479.31;;;1.83;79.52
39949;BME280;29070;48.102;-1.652;2022-12-18T11:28:25;101477.19;;;1.88;79.39
39949;BME280;29070;48.102;-1.652;2022-12-18T11:33:25;101474.22;;;1.93;79.90
39949;BME280;29070;48.102;-1.652;2022-12-18T11:38:29;101466.94;;;1.98;79.36
39949;BME280;29070;48.102;-1.652;2022-12-18T11:43:35;101453.47;;;2.04;79.37
39949;BME280;29070;48.102;-1.652;2022-12-18T11:48:49;101447.84;;;2.10;79.78
39949;BME280;29070;48.102;-1.652;2022-12-18T11:53:52;101429.47;;;2.13;79.69
39949;BME280;29070;48.102;-1.652;2022-12-18T12:20:02;101398.28;;;2.47;79.82
39949;BME280;29070;48.102;-1.652;2022-12-18T12:31:13;101387.16;;;2.56;80.23
39949;BME280;29070;48.102;-1.652;2022-12-18T12:41:23;101359.38;;;2.68;80.13
39949;BME280;29070;48.102;-1.652;2022-12-18T12:46:59;101362.28;;;2.75;80.65
39949;BME280;29070;48.102;-1.652;2022-12-18T12:52:05;101362.50;;;2.83;80.69
39949;BME280;29070;48.102;-1.652;2022-12-18T12:57:14;101356.78;;;2.89;80.72
39949;BME280;29070;48.102;-1.652;2022-12-18T13:07:33;101359.34;;;3.10;80.70
39949;BME280;29070;48.102;-1.652;2022-12-18T13:12:35;101349.16;;;3.18;81.08
39949;BME280;29070;48.102;-1.652;2022-12-18T13:33:46;101360.00;;;3.43;81.00
39949;BME280;29070;48.102;-1.652;2022-12-18T13:38:46;101347.19;;;3.51;81.23
39949;BME280;29070;48.102;-1.652;2022-12-18T13:43:49;101343.09;;;3.58;81.12
39949;BME280;29070;48.102;-1.652;2022-12-18T13:54:13;101328.91;;;3.72;81.14
39949;BME280;29070;48.102;-1.652;2022-12-18T13:59:21;101317.31;;;3.76;81.23
39949;BME280;29070;48.102;-1.652;2022-12-18T14:09:28;101298.31;;;3.86;81.51
39949;BME280;29070;48.102;-1.652;2022-12-18T14:14:29;101273.69;;;3.90;81.35
39949;BME280;29070;48.102;-1.652;2022-12-18T14:19:29;101263.84;;;3.93;81.63
39949;BME280;29070;48.102;-1.652;2022-12-18T14:24:29;101268.38;;;4.01;81.95
39949;BME280;29070;48.102;-1.652;2022-12-18T14:29:30;101271.75;;;4.11;81.98
39949;BME280;29070;48.102;-1.652;2022-12-18T14:34:31;101257.81;;;4.22;82.04
39949;BME280;29070;48.102;-1.652;2022-12-18T14:39:31;101256.00;;;4.32;82.09
39949;BME280;29070;48.102;-1.652;2022-12-18T14:44:31;101254.47;;;4.39;82.33
39949;BME280;29070;48.102;-1.652;2022-12-18T14:49:33;101251.34;;;4.46;82.23
39949;BME280;29070;48.102;-1.652;2022-12-18T14:54:35;101246.09;;;4.55;82.22
39949;BME280;29070;48.102;-1.652;2022-12-18T14:59:37;101230.88;;;4.61;82.32
39949;BME280;29070;48.102;-1.652;2022-12-18T15:04:39;101231.28;;;4.66;82.26
39949;BME280;29070;48.102;-1.652;2022-12-18T15:09:42;101227.13;;;4.73;82.20
39949;BME280;29070;48.102;-1.652;2022-12-18T15:14:43;101244.75;;;4.79;82.68
39949;BME280;29070;48.102;-1.652;2022-12-18T15:19:44;101249.69;;;4.82;82.73
39949;BME280;29070;48.102;-1.652;2022-12-18T15:24:46;101260.34;;;4.89;82.66
39949;BME280;29070;48.102;-1.652;2022-12-18T15:30:10;101275.50;;;4.93;82.44
39949;BME280;29070;48.102;-1.652;2022-12-18T15:35:24;101275.06;;;4.98;82.65
39949;BME280;29070;48.102;-1.652;2022-12-18T15:40:24;101271.88;;;5.04;82.89
39949;BME280;29070;48.102;-1.652;2022-12-18T15:45:25;101267.91;;;5.10;83.08
39949;BME280;29070;48.102;-1.652;2022-12-18T15:50:25;101260.44;;;5.15;83.19
39949;BME280;29070;48.102;-1.652;2022-12-18T15:55:26;101259.88;;;5.21;83.02
39949;BME280;29070;48.102;-1.652;2022-12-18T16:00:45;101257.66;;;5.26;83.21
39949;BME280;29070;48.102;-1.652;2022-12-18T16:05:45;101266.66;;;5.32;83.31
39949;BME280;29070;48.102;-1.652;2022-12-18T16:10:46;101249.63;;;5.38;83.40
39949;BME280;29070;48.102;-1.652;2022-12-18T16:15:47;101259.78;;;5.41;83.32
39949;BME280;29070;48.102;-1.652;2022-12-18T16:20:47;101266.03;;;5.48;83.41
39949;BME280;29070;48.102;-1.652;2022-12-18T16:25:48;101262.97;;;5.52;83.44
39949;BME280;29070;48.102;-1.652;2022-12-18T16:30:48;101261.56;;;5.58;83.66
39949;BME280;29070;48.102;-1.652;2022-12-18T16:35:52;101245.63;;;5.61;83.50
39949;BME280;29070;48.102;-1.652;2022-12-18T16:40:53;101241.59;;;5.67;83.56
39949;BME280;29070;48.102;-1.652;2022-12-18T16:46:12;101228.94;;;5.72;83.41
39949;BME280;29070;48.102;-1.652;2022-12-18T16:51:12;101241.53;;;5.77;83.87
39949;BME280;29070;48.102;-1.652;2022-12-18T16:56:13;101252.34;;;5.82;83.96
39949;BME280;29070;48.102;-1.652;2022-12-18T17:01:13;101253.66;;;5.86;83.94
39949;BME280;29070;48.102;-1.652;2022-12-18T17:06:13;101239.34;;;5.90;84.13
39949;BME280;29070;48.102;-1.652;2022-12-18T17:11:14;101248.41;;;5.96;83.96
39949;BME280;29070;48.102;-1.652;2022-12-18T17:16:14;101234.91;;;6.00;84.07
39949;BME280;29070;48.102;-1.652;2022-12-18T17:21:16;101233.47;;;6.06;84.32
39949;BME280;29070;48.102;-1.652;2022-12-18T17:26:17;101235.63;;;6.10;84.29
39949;BME280;29070;48.102;-1.652;2022-12-18T17:31:19;101217.44;;;6.19;84.22
39949;BME280;29070;48.102;-1.652;2022-12-18T17:36:21;101199.53;;;6.24;84.51
39949;BME280;29070;48.102;-1.652;2022-12-18T17:41:23;101233.78;;;6.29;84.32
39949;BME280;29070;48.102;-1.652;2022-12-18T17:46:24;101225.66;;;6.32;84.20
39949;BME280;29070;48.102;-1.652;2022-12-18T17:51:26;101229.59;;;6.36;84.66
39949;BME280;29070;48.102;-1.652;2022-12-18T17:56:27;101235.00;;;6.43;84.34
39949;BME280;29070;48.102;-1.652;2022-12-18T18:01:27;101239.78;;;6.47;84.75
39949;BME280;29070;48.102;-1.652;2022-12-18T18:06:27;101223.66;;;6.52;84.90
39949;BME280;29070;48.102;-1.652;2022-12-18T18:11:28;101223.84;;;6.59;84.69
39949;BME280;29070;48.102;-1.652;2022-12-18T18:16:48;101209.22;;;6.66;84.86
39949;BME280;29070;48.102;-1.652;2022-12-18T18:21:50;101217.06;;;6.74;85.06
39949;BME280;29070;48.102;-1.652;2022-12-18T18:26:51;101222.31;;;6.82;84.81
39949;BME280;29070;48.102;-1.652;2022-12-18T18:31:52;101214.97;;;6.86;84.75
39949;BME280;29070;48.102;-1.652;2022-12-18T18:36:53;101225.63;;;6.93;84.70
39949;BME280;29070;48.102;-1.652;2022-12-18T18:41:53;101216.31;;;6.98;84.99
39949;BME280;29070;48.102;-1.652;2022-12-18T18:46:55;101226.97;;;7.05;85.15
39949;BME280;29070;48.102;-1.652;2022-12-18T18:51:56;101242.63;;;7.13;84.98
39949;BME280;29070;48.102;-1.652;2022-12-18T18:56:56;101243.63;;;7.20;85.07
39949;BME280;29070;48.102;-1.652;2022-12-18T19:01:57;101237.63;;;7.28;85.06
39949;BME280;29070;48.102;-1.652;2022-12-18T19:06:58;101234.19;;;7.36;85.35
39949;BME280;29070;48.102;-1.652;2022-12-18T19:11:58;101249.56;;;7.47;85.68
39949;BME280;29070;48.102;-1.652;2022-12-18T19:17:17;101238.13;;;7.56;85.77
39949;BME280;29070;48.102;-1.652;2022-12-18T19:22:17;101247.94;;;7.62;85.32
39949;BME280;29070;48.102;-1.652;2022-12-18T19:27:18;101236.03;;;7.68;85.51
39949;BME280;29070;48.102;-1.652;2022-12-18T19:32:18;101229.97;;;7.76;85.39
39949;BME280;29070;48.102;-1.652;2022-12-18T19:37:18;101220.34;;;7.85;85.83
39949;BME280;29070;48.102;-1.652;2022-12-18T19:42:19;101219.84;;;7.89;85.89
39949;BME280;29070;48.102;-1.652;2022-12-18T19:47:19;101220.19;;;7.94;85.70
39949;BME280;29070;48.102;-1.652;2022-12-18T19:52:19;101214.28;;;8.00;85.46
39949;BME280;29070;48.102;-1.652;2022-12-18T19:57:20;101210.03;;;8.08;85.83
39949;BME280;29070;48.102;-1.652;2022-12-18T20:02:20;101218.50;;;8.10;85.82
39949;BME280;29070;48.102;-1.652;2022-12-18T20:07:20;101217.84;;;8.16;85.91
39949;BME280;29070;48.102;-1.652;2022-12-18T20:12:21;101221.78;;;8.20;85.79
39949;BME280;29070;48.102;-1.652;2022-12-18T20:17:21;101222.09;;;8.25;85.71
39949;BME280;29070;48.102;-1.652;2022-12-18T20:22:22;101225.03;;;8.30;86.27
39949;BME280;29070;48.102;-1.652;2022-12-18T20:27:22;101224.34;;;8.36;86.02
39949;BME280;29070;48.102;-1.652;2022-12-18T20:32:22;101233.34;;;8.42;86.00
39949;BME280;29070;48.102;-1.652;2022-12-18T20:37:23;101232.69;;;8.48;86.11
39949;BME280;29070;48.102;-1.652;2022-12-18T20:42:23;101219.91;;;8.53;86.21
39949;BME280;29070;48.102;-1.652;2022-12-18T20:47:23;101229.69;;;8.59;86.53
39949;BME280;29070;48.102;-1.652;2022-12-18T20:52:24;101226.59;;;8.64;86.42
39949;BME280;29070;48.102;-1.652;2022-12-18T20:57:24;101245.22;;;8.69;86.31
39949;BME280;29070;48.102;-1.652;2022-12-18T21:02:24;101247.13;;;8.75;86.48
39949;BME280;29070;48.102;-1.652;2022-12-18T21:07:25;101228.97;;;8.82;86.40
39949;BME280;29070;48.102;-1.652;2022-12-18T21:12:26;101236.66;;;8.84;86.36
39949;BME280;29070;48.102;-1.652;2022-12-18T21:17:41;101238.09;;;8.86;86.74
39949;BME280;29070;48.102;-1.652;2022-12-18T21:22:42;101237.59;;;8.91;85.89
39949;BME280;29070;48.102;-1.652;2022-12-18T21:27:42;101218.44;;;8.90;86.06
39949;BME280;29070;48.102;-1.652;2022-12-18T21:32:43;101209.44;;;8.93;86.10
39949;BME280;29070;48.102;-1.652;2022-12-18T21:37:43;101237.22;;;8.94;86.21
39949;BME280;29070;48.102;-1.652;2022-12-18T21:42:43;101233.63;;;8.95;85.94
39949;BME280;29070;48.102;-1.652;2022-12-18T21:48:02;101221.19;;;8.97;85.96
39949;BME280;29070;48.102;-1.652;2022-12-18T21:53:02;101192.22;;;8.99;85.75
39949;BME280;29070;48.102;-1.652;2022-12-18T21:58:03;101190.41;;;8.99;86.30
39949;BME280;29070;48.102;-1.652;2022-12-18T22:03:03;101195.47;;;9.01;86.02
39949;BME280;29070;48.102;-1.652;2022-12-18T22:08:04;101188.25;;;9.03;85.94
39949;BME280;29070;48.102;-1.652;2022-12-18T22:13:06;101182.69;;;9.06;85.82
39949;BME280;29070;48.102;-1.652;2022-12-18T22:18:06;101223.78;;;9.05;85.77
39949;BME280;29070;48.102;-1.652;2022-12-18T22:23:06;101223.41;;;9.08;85.48
39949;BME280;29070;48.102;-1.652;2022-12-18T22:28:08;101212.28;;;9.06;85.47
39949;BME280;29070;48.102;-1.652;2022-12-18T22:33:27;101209.84;;;9.05;85.41
39949;BME280;29070;48.102;-1.652;2022-12-18T22:38:27;101206.88;;;9.08;85.37
39949;BME280;29070;48.102;-1.652;2022-12-18T22:43:27;101203.13;;;9.10;85.52
39949;BME280;29070;48.102;-1.652;2022-12-18T22:48:28;101196.25;;;9.09;85.16
39949;BME280;29070;48.102;-1.652;2022-12-18T22:53:29;101188.69;;;9.14;85.42
39949;BME280;29070;48.102;-1.652;2022-12-18T22:58:29;101200.44;;;9.19;85.16
39949;BME280;29070;48.102;-1.652;2022-12-18T23:03:33;101187.66;;;9.24;85.45
39949;BME280;29070;48.102;-1.652;2022-12-18T23:08:34;101199.75;;;9.25;85.39
39949;BME280;29070;48.102;-1.652;2022-12-18T23:13:34;101220.72;;;9.25;85.24
39949;BME280;29070;48.102;-1.652;2022-12-18T23:18:35;101229.84;;;9.29;85.24
39949;BME280;29070;48.102;-1.652;2022-12-18T23:23:36;101234.75;;;9.32;84.99
39949;BME280;29070;48.102;-1.652;2022-12-18T23:28:37;101254.53;;;9.34;85.25
39949;BME280;29070;48.102;-1.652;2022-12-18T23:33:38;101254.38;;;9.36;85.25
39949;BME280;29070;48.102;-1.652;2022-12-18T23:38:39;101258.25;;;9.40;85.30
39949;BME280;29070;48.102;-1.652;2022-12-18T23:43:40;101255.47;;;9.42;85.31
39949;BME280;29070;48.102;-1.652;2022-12-18T23:48:40;101245.47;;;9.45;85.08
39949;BME280;29070;48.102;-1.652;2022-12-18T23:53:41;101231.22;;;9.48;85.18
39949;BME280;29070;48.102;-1.652;2022-12-18T23:58:43;101235.09;;;9.52;85.45
